createdAt,value
2018-12-07T00:01:36.535Z,12.80
2018-12-07T00:04:05.144Z,12.77
2018-12-07T00:06:33.875Z,12.93
2018-12-07T00:09:04.164Z,12.43
2018-12-07T00:11:32.777Z,12.33
2018-12-07T00:14:01.277Z,11.57
2018-12-07T00:16:29.904Z,11.87
2018-12-07T00:18:58.521Z,11.43
2018-12-07T00:21:27.115Z,11.70
2018-12-07T00:23:55.891Z,11.73
2018-12-07T00:26:24.491Z,11.27
2018-12-07T00:28:53.026Z,10.57
2018-12-07T00:31:21.786Z,11.20
2018-12-07T00:33:50.459Z,10.40
2018-12-07T00:36:19.007Z,10.53
2018-12-07T00:38:47.684Z,10.47
2018-12-07T00:41:16.296Z,9.93
2018-12-07T00:43:44.769Z,10.10
2018-12-07T00:46:13.321Z,10.43
2018-12-07T00:48:41.893Z,10.60
2018-12-07T00:51:10.521Z,9.70
2018-12-07T00:53:39.152Z,9.77
2018-12-07T00:56:07.744Z,10.50
2018-12-07T00:58:36.380Z,9.47
2018-12-07T01:01:05.470Z,9.23
2018-12-07T01:03:34.132Z,10.10
2018-12-07T01:06:02.751Z,9.80
2018-12-07T01:08:31.525Z,10.23
2018-12-07T01:11:00.124Z,9.13
2018-12-07T01:13:28.680Z,8.57
2018-12-07T01:15:57.437Z,8.33
2018-12-07T01:18:25.967Z,9.43
2018-12-07T01:20:54.562Z,8.13
2018-12-07T01:23:23.340Z,9.43
2018-12-07T01:25:51.867Z,9.03
2018-12-07T01:28:20.496Z,8.07
2018-12-07T01:30:49.145Z,8.77
2018-12-07T01:33:17.789Z,8.67
2018-12-07T01:35:46.440Z,7.90
2018-12-07T01:38:15.108Z,7.83
2018-12-07T01:40:43.782Z,8.30
2018-12-07T01:43:12.433Z,8.67
2018-12-07T01:45:41.255Z,8.93
2018-12-07T01:48:10.044Z,7.77
2018-12-07T01:50:38.579Z,8.10
2018-12-07T01:53:07.242Z,8.27
2018-12-07T01:55:35.688Z,8.00
2018-12-07T01:58:04.320Z,7.97
2018-12-07T02:00:32.893Z,7.80
2018-12-07T02:03:01.587Z,8.73
2018-12-07T02:05:30.123Z,8.47
2018-12-07T02:07:59.157Z,7.97
2018-12-07T02:10:27.743Z,8.53
2018-12-07T02:12:56.336Z,7.83
2018-12-07T02:15:24.933Z,8.23
2018-12-07T02:17:53.497Z,8.90
2018-12-07T02:20:22.106Z,8.00
2018-12-07T02:22:50.920Z,7.70
2018-12-07T02:25:19.551Z,8.40
2018-12-07T02:27:53.864Z,8.10
2018-12-07T02:30:22.469Z,8.20
2018-12-07T02:32:51.056Z,8.23
2018-12-07T02:35:20.756Z,7.87
2018-12-07T02:37:49.353Z,8.50
2018-12-07T02:40:17.906Z,8.13
2018-12-07T02:42:46.804Z,8.63
2018-12-07T02:45:15.395Z,8.63
2018-12-07T02:47:43.924Z,7.97
2018-12-07T02:50:13.160Z,7.43
2018-12-07T02:52:41.764Z,8.03
2018-12-07T02:55:10.351Z,8.20
2018-12-07T02:57:39.016Z,8.93
2018-12-07T03:00:08.749Z,8.70
2018-12-07T03:02:37.307Z,9.30
2018-12-07T03:05:06.561Z,8.40
2018-12-07T03:07:35.097Z,8.57
2018-12-07T03:10:04.098Z,8.57
2018-12-07T03:12:32.911Z,8.63
2018-12-07T03:15:01.466Z,8.93
2018-12-07T03:17:30.044Z,8.57
2018-12-07T03:19:58.933Z,8.50
2018-12-07T03:22:27.533Z,8.37
2018-12-07T03:24:56.175Z,8.93
2018-12-07T03:27:24.957Z,7.90
2018-12-07T03:29:53.592Z,8.43
2018-12-07T03:32:22.148Z,8.77
2018-12-07T03:34:51.241Z,8.53
2018-12-07T03:37:19.836Z,7.97
2018-12-07T03:39:48.425Z,8.00
2018-12-07T03:42:17.100Z,8.73
2018-12-07T03:44:45.702Z,8.53
2018-12-07T03:47:14.356Z,9.10
2018-12-07T03:49:43.030Z,8.60
2018-12-07T03:52:11.720Z,9.47
2018-12-07T03:54:40.331Z,8.77
2018-12-07T03:57:09.112Z,8.67
2018-12-07T03:59:37.707Z,10.30
2018-12-07T04:02:06.411Z,10.13
2018-12-07T04:04:35.130Z,9.90
2018-12-07T04:07:03.844Z,10.00
2018-12-07T04:09:32.444Z,9.80
2018-12-07T04:12:01.239Z,10.03
2018-12-07T04:14:29.896Z,10.00
2018-12-07T04:16:58.456Z,10.87
2018-12-07T04:19:27.284Z,11.47
2018-12-07T04:54:55.869Z,9.03
2018-12-07T04:57:24.315Z,9.60
2018-12-07T04:59:52.775Z,9.23
2018-12-07T05:02:21.397Z,9.77
2018-12-07T05:04:50.624Z,9.17
2018-12-07T05:07:19.182Z,9.77
2018-12-07T05:09:47.669Z,8.93
2018-12-07T05:12:16.184Z,9.17
2018-12-07T05:42:01.748Z,7.03
2018-12-07T05:44:30.993Z,6.67
2018-12-07T05:46:59.934Z,6.43
2018-12-07T05:49:29.169Z,7.27
2018-12-07T05:51:58.476Z,7.13
2018-12-07T05:54:27.402Z,7.50
2018-12-07T05:56:56.872Z,7.43
2018-12-07T05:59:26.057Z,7.70
2018-12-07T06:01:54.975Z,7.10
2018-12-07T06:04:24.245Z,7.97
2018-12-07T06:06:53.350Z,7.23
2018-12-07T06:09:22.425Z,7.47
2018-12-07T08:37:41.347Z,12.10
2018-12-07T08:40:12.625Z,11.97
2018-12-07T08:42:43.705Z,12.80
2018-12-07T08:45:14.583Z,12.20
2018-12-07T09:22:25.081Z,11.53
2018-12-07T09:24:56.009Z,11.07
2018-12-07T09:27:26.788Z,11.47
2018-12-07T09:36:25.379Z,10.43
2018-12-07T09:38:56.150Z,11.40
2018-12-07T09:41:27.521Z,11.83
2018-12-07T11:49:49.739Z,12.27
2018-12-07T11:52:19.166Z,11.33
2018-12-07T11:54:48.746Z,11.30
2018-12-07T11:57:18.369Z,11.20
2018-12-07T11:59:48.634Z,11.10
2018-12-07T12:02:26.121Z,11.20
2018-12-07T12:04:48.035Z,11.60
2018-12-07T12:07:17.235Z,10.80
2018-12-07T12:09:47.311Z,11.50
2018-12-07T12:12:17.461Z,10.93
2018-12-07T12:14:47.507Z,10.57
2018-12-07T12:17:17.056Z,10.60
2018-12-07T12:24:58.023Z,10.98
2018-12-07T12:27:27.678Z,11.60
2018-12-07T12:29:57.239Z,10.83
2018-12-07T12:32:26.808Z,10.80
2018-12-07T13:27:42.428Z,10.07
2018-12-07T13:30:11.852Z,9.23
2018-12-07T13:32:41.138Z,9.73
2018-12-07T13:35:10.590Z,10.27
2018-12-07T13:37:39.434Z,10.63
2018-12-07T13:40:09.081Z,9.73
2018-12-07T13:42:38.619Z,10.20
2018-12-07T13:45:08.422Z,9.43
2018-12-07T13:47:38.104Z,9.97
2018-12-07T13:50:12.592Z,9.70
2018-12-07T13:52:42.147Z,9.20
2018-12-07T13:57:51.160Z,11.63
2018-12-07T14:00:21.300Z,9.77
2018-12-07T14:02:50.931Z,9.60
2018-12-07T14:05:20.595Z,9.53
2018-12-07T14:07:52.425Z,10.15
2018-12-07T14:10:22.028Z,9.70
2018-12-07T14:12:51.156Z,10.00
2018-12-07T14:15:20.860Z,10.37
2018-12-07T14:17:50.556Z,9.93
2018-12-07T14:20:25.289Z,10.47
2018-12-07T14:26:13.620Z,11.40
2018-12-07T14:28:42.784Z,10.33
2018-12-07T14:31:12.003Z,10.17
2018-12-07T14:33:41.458Z,10.10
2018-12-07T20:24:55.821Z,20.23
2018-12-07T20:27:24.388Z,20.47
2018-12-07T20:29:52.824Z,21.10
2018-12-07T20:32:21.380Z,19.47
2018-12-07T20:34:49.729Z,18.90
2018-12-07T20:37:18.234Z,18.33
2018-12-07T20:39:46.764Z,19.03
2018-12-07T20:42:15.191Z,19.40
2018-12-07T20:44:43.557Z,18.17
2018-12-07T20:47:12.383Z,18.63
2018-12-07T20:49:40.809Z,18.33
2018-12-07T20:52:09.441Z,17.90
2018-12-07T20:54:37.696Z,17.97
2018-12-07T20:57:06.141Z,18.73
2018-12-07T20:59:34.651Z,18.83
2018-12-07T21:02:04.507Z,17.57
2018-12-07T21:04:32.911Z,17.03
2018-12-07T21:07:34.673Z,16.50
2018-12-07T21:10:30.983Z,17.83
2018-12-07T21:13:23.826Z,16.90
2018-12-07T21:15:53.081Z,15.67
2018-12-07T21:18:22.525Z,15.93
2018-12-07T21:20:51.949Z,15.97
2018-12-07T21:23:20.373Z,16.17
2018-12-07T21:25:49.377Z,15.93
2018-12-07T21:28:17.975Z,15.53
2018-12-07T21:30:45.805Z,15.87
2018-12-07T21:33:13.970Z,16.60
2018-12-07T21:38:57.570Z,18.80
2018-12-07T21:41:26.295Z,16.57
2018-12-07T21:43:55.737Z,17.10
2018-12-07T21:46:23.994Z,17.07
2018-12-07T21:48:52.708Z,16.57
2018-12-07T21:51:22.462Z,18.17
2018-12-07T21:53:51.575Z,16.63
2018-12-07T21:56:20.342Z,16.47
2018-12-07T21:58:48.817Z,17.33
2018-12-07T22:01:17.372Z,16.87
2018-12-07T22:03:46.115Z,17.23
2018-12-07T22:06:14.517Z,17.63
2018-12-07T22:08:42.972Z,16.57
2018-12-07T22:11:12.351Z,16.57
2018-12-07T22:13:41.799Z,17.80
2018-12-07T22:16:10.040Z,17.40
2018-12-07T22:18:39.692Z,16.47
2018-12-07T22:21:08.090Z,16.60
2018-12-07T22:23:36.522Z,17.23
2018-12-07T22:26:06.688Z,17.03
2018-12-07T22:28:34.879Z,17.47
2018-12-07T22:31:03.706Z,17.87
2018-12-07T22:33:32.638Z,17.13
2018-12-07T22:36:01.097Z,16.20
2018-12-07T22:38:29.778Z,17.33
2018-12-07T22:40:58.518Z,17.07
2018-12-07T22:43:26.781Z,16.70
2018-12-07T22:45:55.299Z,17.27
2018-12-07T22:48:25.584Z,16.57
2018-12-07T22:50:54.080Z,16.73
2018-12-07T22:53:23.283Z,15.80
2018-12-07T22:55:52.547Z,15.40
2018-12-07T22:58:20.981Z,15.37
2018-12-07T23:00:48.931Z,15.57
2018-12-07T23:03:17.997Z,15.27
2018-12-07T23:05:46.437Z,15.87
2018-12-07T23:08:14.873Z,15.73
2018-12-07T23:10:43.552Z,15.60
2018-12-07T23:13:12.078Z,15.87
2018-12-07T23:15:41.243Z,17.23
2018-12-07T23:18:10.738Z,16.57
2018-12-07T23:20:40.697Z,17.00
2018-12-07T23:23:09.150Z,16.40
2018-12-07T23:25:38.625Z,17.60
2018-12-07T23:28:07.246Z,18.80
2018-12-07T23:30:36.454Z,16.67
2018-12-07T23:33:05.093Z,17.77
2018-12-07T23:35:33.541Z,17.10
2018-12-07T23:38:01.976Z,18.90
2018-12-07T23:40:31.366Z,18.40
2018-12-07T23:43:02.423Z,20.00
2018-12-07T23:45:31.874Z,20.33
2018-12-07T23:48:00.304Z,19.17
2018-12-07T23:50:29.523Z,20.67
2018-12-07T23:52:58.884Z,21.63
2018-12-07T23:55:27.322Z,21.07
2018-12-07T23:57:55.765Z,21.03
